critictoo.com alexa rank chart, critictoo.com alexa rank daily changes

critictoo.com alexa rank chart, critictoo.com alexa rank daily changes

critictoo.com
Actual rank:
97 545

RANK HISTORY

Date Rank Diff
2017/06/25 97 545 +2 989
2017/06/24 94 556 +1 725
2017/06/23 92 831 +1 999
2017/06/22 90 832 -1 526
2017/06/21 92 358 -68
2017/06/20 92 426 +1 515
2017/06/19 90 911 +1 045
2017/06/18 89 866 +1 615
2017/06/17 88 251 -174
2017/06/16 88 425 +1 424
2017/06/15 87 001 +1 627
2017/06/14 85 374 -152
2017/06/13 85 526 +1 174
2017/06/12 84 352 -724
2017/06/11 85 076 +573
2017/06/10 84 503 +681
2017/06/09 83 822 +675
2017/06/08 83 147 -1 280
2017/06/07 84 427 +14
2017/06/06 84 413 +353
2017/06/05 84 060 -387
2017/06/04 84 447 -674
2017/06/03 85 121 -1 399
2017/06/02 86 520 +290
2017/06/01 86 230 +1 055
2017/05/31 85 175 -31
2017/05/30 85 206 +1 179
2017/05/29 84 027 -965
2017/05/28 84 992 -968
2017/05/27 85 960 +158
2017/05/26 85 802 +2 062
2017/05/25 83 740 -1 814
2017/05/24 85 554 +1 271
2017/05/23 84 283 +132
2017/05/22 84 151 +710
2017/05/21 83 441 -183
2017/05/20 83 624 -753
2017/05/19 84 377 -1 637
2017/05/18 86 014 -2 295
2017/05/17 88 309 +708
2017/05/16 87 601 -263
2017/05/15 87 864 -531
2017/05/14 88 395 +3
2017/05/13 88 392 -619
2017/05/12 89 011 +292
2017/05/11 88 719 +1 018
2017/05/10 87 701 +8
2017/05/09 87 693 +455
2017/05/08 87 238 +1 857
2017/05/07 85 381 +465
2017/05/06 84 916 +115
2017/05/05 84 801 +152
2017/05/04 84 649 +2 475
2017/05/03 82 174 +975
2017/05/02 81 199 -326
2017/05/01 81 525 -189
2017/04/30 81 714 -453
2017/04/29 82 167 +280
2017/04/28 81 887 +1 274
2017/04/27 80 613 -1 508
2017/04/26 82 121

WIDGET FOR YOUR SITE

DOMAINS WITH THE NEAREST RANK

Domain Rank
fcbankingonline.com 97 540
emtempo.com.br 97 541
baquge.tw 97 542
zingaya.com 97 543
mdi.gob.ec 97 544
critictoo.com 97 545
egosila.ru 97 546
h0724.cn 97 547
bch.com.cn 97 548
cysoku.com 97 549
ermitazas.lt 97 550

DOMAINS WITH THE NEAREST RANK BY TLD .com

Domain Rank
rideways.com 97 531
proko.com 97 532
fatego-fan.com 97 535
fcbankingonline.com 97 540
zingaya.com 97 543
critictoo.com 97 545
cysoku.com 97 549
sharejs.com 97 552
cloudcdn376127.com 97 554
dealdash.com 97 555
melodysoft.com 97 556